Time;durP1;ratioP1;P1;durP2;ratioP2;P2;SDS_P1;SDS_P2;PMS_P1;PMS_P2;Temp;Humidity;BMP_temperature;BMP_pressure;BME280_temperature;BME280_humidity;BME280_pressure;Samples;Min_cycle;Max_cycle;Signal;HPM_P1;HPM_P2
2020/12/17 00:01:35;;;;;;;455.40;254.68;;;;;;;0.97;78.23;95181.41;1807914;79;21635;-50
2020/12/17 00:04:03;;;;;;;450.53;253.20;;;;;;;0.99;78.21;95176.39;1807885;78;21197;-51
2020/12/17 00:06:36;;;;;;;446.25;243.17;;;;;;;1.01;78.25;95173.52;1806867;79;21501;-50
2020/12/17 00:09:04;;;;;;;437.15;239.55;;;;;;;1.06;78.35;95171.02;1807997;79;21049;-53
2020/12/17 00:11:33;;;;;;;440.12;242.05;;;;;;;1.14;78.41;95179.41;1807942;78;21164;-49
2020/12/17 00:14:01;;;;;;;411.77;225.35;;;;;;;1.20;78.26;95181.39;1807896;78;21470;-51
2020/12/17 00:16:30;;;;;;;427.85;230.18;;;;;;;1.26;78.15;95181.23;1807856;79;21196;-50
2020/12/17 00:18:58;;;;;;;447.93;239.17;;;;;;;1.27;78.21;95182.78;1809998;79;21124;-50
2020/12/17 00:21:27;;;;;;;441.45;241.20;;;;;;;1.26;77.87;95196.13;1813636;79;21129;-50
2020/12/17 00:23:56;;;;;;;431.63;231.95;;;;;;;1.25;78.23;95187.02;1813508;79;21192;-51
2020/12/17 00:26:27;;;;;;;431.65;234.20;;;;;;;1.31;78.22;95193.66;1813663;79;21497;-51
2020/12/17 00:28:55;;;;;;;364.25;200.43;;;;;;;1.36;77.71;95191.34;1813670;79;22076;-51
2020/12/17 00:31:23;;;;;;;394.02;209.35;;;;;;;1.28;77.36;95194.41;1813514;79;21061;-50
2020/12/17 00:33:52;;;;;;;400.50;219.90;;;;;;;1.11;77.30;95195.83;1813634;79;21097;-51
2020/12/17 00:36:22;;;;;;;398.57;211.32;;;;;;;0.97;77.50;95197.66;1813505;78;21065;-52
2020/12/17 00:38:51;;;;;;;380.62;203.52;;;;;;;0.88;77.74;95195.27;1813505;77;21053;-51
2020/12/17 00:41:20;;;;;;;399.65;208.13;;;;;;;0.83;78.24;95196.97;1813495;79;21445;-51
2020/12/17 00:43:49;;;;;;;393.45;202.75;;;;;;;0.93;78.40;95196.27;1813498;79;21105;-50
2020/12/17 00:46:17;;;;;;;382.68;204.10;;;;;;;0.99;78.17;95197.47;1813517;79;21123;-50
2020/12/17 00:48:46;;;;;;;412.80;216.33;;;;;;;1.05;78.10;95197.34;1813457;79;21120;-50
2020/12/17 00:51:18;;;;;;;413.55;221.62;;;;;;;1.07;77.96;95189.61;1813575;79;21530;-51
2020/12/17 00:53:46;;;;;;;422.17;227.97;;;;;;;1.11;77.87;95189.05;1813820;79;21192;-50
2020/12/17 00:56:14;;;;;;;379.60;198.50;;;;;;;1.15;77.92;95197.22;1813479;78;21085;-52
2020/12/17 00:58:43;;;;;;;405.13;207.25;;;;;;;1.21;77.90;95189.72;1813591;79;21462;-51
2020/12/17 01:01:11;;;;;;;406.50;211.22;;;;;;;1.24;77.72;95199.80;1813486;79;21061;-52
2020/12/17 01:03:39;;;;;;;400.72;211.87;;;;;;;1.25;77.73;95200.00;1813571;78;21589;-51
2020/12/17 01:06:08;;;;;;;375.30;198.57;;;;;;;1.28;77.61;95201.19;1813512;79;21370;-50
2020/12/17 01:08:37;;;;;;;393.73;210.85;;;;;;;1.24;77.59;95205.22;1813416;79;21116;-51
2020/12/17 01:11:06;;;;;;;382.45;199.30;;;;;;;1.21;77.83;95208.69;1813596;79;21542;-49
2020/12/17 01:13:35;;;;;;;388.23;197.98;;;;;;;1.28;77.84;95203.90;1813513;79;21168;-49
2020/12/17 01:16:03;;;;;;;365.55;191.65;;;;;;;1.32;77.75;95209.52;1813522;79;21065;-50
2020/12/17 01:18:33;;;;;;;372.30;202.13;;;;;;;1.41;77.69;95208.63;1813313;79;21411;-50
2020/12/17 01:21:05;;;;;;;354.00;190.18;;;;;;;1.41;77.29;95211.34;1813470;79;21076;-51
2020/12/17 01:23:33;;;;;;;368.63;195.00;;;;;;;1.35;77.23;95204.70;1813760;78;21073;-50
2020/12/17 01:26:08;;;;;;;367.55;191.80;;;;;;;1.23;76.99;95206.94;1813613;79;21061;-52
2020/12/17 01:28:33;;;;;;;363.98;195.35;;;;;;;1.07;77.07;95206.42;1787468;79;21089;-50
2020/12/17 01:31:13;;;;;;;379.38;197.22;;;;;;;0.98;77.44;95209.45;1813514;79;21356;-50
2020/12/17 01:33:42;;;;;;;366.35;198.43;;;;;;;0.97;77.52;95209.25;1813505;79;21076;-50
2020/12/17 01:36:11;;;;;;;364.65;193.25;;;;;;;1.03;77.96;95212.40;1813479;79;21045;-51
2020/12/17 01:38:40;;;;;;;343.88;179.18;;;;;;;1.18;77.99;95219.48;1813455;78;21152;-50
2020/12/17 01:41:14;;;;;;;352.55;183.37;;;;;;;1.25;77.45;95224.38;1813453;77;21211;-49
2020/12/17 01:43:44;;;;;;;357.02;190.00;;;;;;;1.25;77.31;95223.03;1813510;79;21364;-50
2020/12/17 01:46:14;;;;;;;346.35;182.10;;;;;;;1.23;77.35;95224.55;1813408;79;21070;-50
2020/12/17 01:48:43;;;;;;;347.33;186.47;;;;;;;1.23;77.48;95222.63;1813587;79;21049;-50
2020/12/17 01:51:11;;;;;;;352.00;182.17;;;;;;;1.24;77.50;95219.33;1813479;79;21049;-51
2020/12/17 01:53:41;;;;;;;351.98;181.60;;;;;;;1.25;77.55;95218.97;1813590;78;21136;-50
2020/12/17 01:56:15;;;;;;;341.00;178.15;;;;;;;1.24;77.67;95224.19;1813477;79;21245;-50
2020/12/17 01:58:47;;;;;;;360.60;187.12;;;;;;;1.22;77.79;95231.91;1813416;79;21072;-50
2020/12/17 02:01:16;;;;;;;381.47;195.47;;;;;;;1.17;77.89;95225.47;1813735;79;21160;-50
2020/12/17 02:03:44;;;;;;;338.43;180.95;;;;;;;1.16;78.07;95227.98;1813459;79;21045;-51
2020/12/17 02:06:13;;;;;;;350.87;186.30;;;;;;;1.19;78.09;95223.19;1813519;79;21561;-50
2020/12/17 02:08:41;;;;;;;371.93;196.50;;;;;;;1.22;78.12;95231.91;1813500;79;21370;-50
2020/12/17 02:11:10;;;;;;;366.75;197.53;;;;;;;1.32;78.40;95237.97;1813411;79;21124;-50
2020/12/17 02:13:38;;;;;;;397.57;205.67;;;;;;;1.46;78.08;95236.73;1813573;79;21528;-50
2020/12/17 02:16:07;;;;;;;423.25;219.30;;;;;;;1.54;77.83;95239.67;1813476;79;21136;-50
2020/12/17 02:18:35;;;;;;;395.23;211.30;;;;;;;1.57;77.72;95240.30;1813512;78;21635;-50
2020/12/17 02:21:03;;;;;;;391.57;210.97;;;;;;;1.65;77.91;95245.19;1807837;79;21335;-51
2020/12/17 02:23:34;;;;;;;388.75;203.07;;;;;;;1.76;77.67;95234.60;1807707;79;21097;-50
2020/12/17 02:26:02;;;;;;;370.33;201.65;;;;;;;1.86;77.37;95231.16;1807768;79;21470;-51
2020/12/17 02:28:34;;;;;;;395.07;204.00;;;;;;;1.91;77.11;95230.78;1807757;79;21049;-50
2020/12/17 02:31:02;;;;;;;410.73;213.25;;;;;;;1.92;76.95;95232.37;1807803;79;21064;-50
2020/12/17 02:33:30;;;;;;;347.42;187.55;;;;;;;1.95;76.96;95237.79;1807752;79;21438;-49
2020/12/17 02:35:59;;;;;;;368.15;194.93;;;;;;;2.01;76.77;95234.94;1807785;79;21577;-50
2020/12/17 02:38:28;;;;;;;351.70;192.77;;;;;;;2.01;76.69;95235.50;1807677;79;21116;-50
2020/12/17 02:40:56;;;;;;;349.95;193.00;;;;;;;2.09;76.44;95234.36;1807696;78;21160;-50
2020/12/17 02:43:24;;;;;;;352.22;195.82;;;;;;;2.08;75.98;95238.23;1807782;79;21522;-50
2020/12/17 02:45:53;;;;;;;347.33;191.85;;;;;;;2.02;75.99;95239.77;1807740;79;21378;-49
2020/12/17 02:48:21;;;;;;;375.38;198.75;;;;;;;1.95;75.89;95234.31;1807695;79;21062;-51
2020/12/17 02:50:50;;;;;;;363.52;200.82;;;;;;;1.91;76.02;95237.56;1807748;79;21121;-54
2020/12/17 02:53:18;;;;;;;369.90;202.93;;;;;;;1.91;76.16;95244.34;1807761;79;21100;-54
2020/12/17 02:55:47;;;;;;;330.02;176.80;;;;;;;1.96;76.15;95241.30;1807784;78;21565;-53
2020/12/17 02:58:15;;;;;;;342.90;187.40;;;;;;;1.99;75.75;95237.81;1807710;79;21193;-51
2020/12/17 03:00:44;;;;;;;389.25;215.43;;;;;;;1.90;75.71;95238.72;1807663;79;21097;-49
2020/12/17 03:03:13;;;;;;;360.85;199.82;;;;;;;1.82;75.88;95235.79;1807789;79;21073;-50
2020/12/17 03:05:42;;;;;;;347.37;190.32;;;;;;;1.79;76.05;95239.27;1807843;79;21086;-50
2020/12/17 03:08:12;;;;;;;352.18;183.70;;;;;;;1.77;75.89;95230.14;1806677;79;21045;-51
2020/12/17 03:10:40;;;;;;;348.27;189.10;;;;;;;1.75;76.00;95227.63;1807908;79;21315;-51
2020/12/17 03:13:08;;;;;;;356.90;186.22;;;;;;;1.82;76.37;95243.92;1807837;79;21148;-49
2020/12/17 03:15:37;;;;;;;348.73;187.03;;;;;;;1.91;76.11;95237.56;1807865;79;21125;-50
2020/12/17 03:18:05;;;;;;;338.80;184.75;;;;;;;1.97;76.06;95233.35;1807904;79;21152;-50
2020/12/17 03:20:34;;;;;;;336.05;179.78;;;;;;;2.08;75.89;95239.59;1807724;79;21574;-50
2020/12/17 03:23:02;;;;;;;330.55;170.95;;;;;;;2.13;75.67;95243.31;1807849;79;21436;-53
2020/12/17 03:25:31;;;;;;;328.20;168.70;;;;;;;2.16;75.74;95248.73;1807832;79;21084;-52
2020/12/17 03:28:01;;;;;;;328.92;166.05;;;;;;;2.22;75.64;95241.02;1807900;79;21069;-53
2020/12/17 03:30:31;;;;;;;337.72;176.72;;;;;;;2.25;75.32;95237.53;1807882;79;21117;-53
2020/12/17 03:32:59;;;;;;;470.05;260.82;;;;;;;2.23;75.16;95231.70;1807952;79;21545;-53
2020/12/17 03:35:28;;;;;;;334.75;178.62;;;;;;;2.23;75.18;95235.78;1807833;78;21414;-53
2020/12/17 03:38:00;;;;;;;312.20;170.65;;;;;;;2.27;75.27;95235.20;1807816;79;21117;-56
2020/12/17 03:40:28;;;;;;;329.65;175.25;;;;;;;2.29;74.74;95244.53;1807837;78;21121;-55
2020/12/17 03:42:57;;;;;;;322.00;174.40;;;;;;;2.20;74.51;95241.98;1807841;79;21149;-52
2020/12/17 03:45:25;;;;;;;287.23;147.05;;;;;;;2.07;74.36;95233.97;1808031;79;21473;-51
2020/12/17 03:47:54;;;;;;;336.70;169.30;;;;;;;1.91;74.45;95237.56;1807846;79;21357;-53
2020/12/17 03:50:22;;;;;;;337.48;179.82;;;;;;;1.73;74.73;95235.33;1807820;79;21077;-51
2020/12/17 03:52:52;;;;;;;338.23;176.10;;;;;;;1.65;75.44;95241.88;1807836;79;21450;-52
2020/12/17 03:55:20;;;;;;;359.83;188.62;;;;;;;1.68;75.38;95234.34;1807876;79;21109;-52
2020/12/17 03:57:48;;;;;;;353.07;182.15;;;;;;;1.71;75.42;95236.30;1807971;79;21545;-52
2020/12/17 04:00:17;;;;;;;380.98;199.77;;;;;;;1.79;75.62;95243.33;1807842;78;21363;-51
2020/12/17 04:02:45;;;;;;;335.05;173.82;;;;;;;1.91;75.70;95247.06;1807779;79;21212;-52
2020/12/17 04:05:13;;;;;;;316.82;162.72;;;;;;;2.00;75.36;95240.73;1807876;78;21042;-53
2020/12/17 04:07:41;;;;;;;288.32;150.60;;;;;;;1.96;75.23;95242.05;1807875;78;21053;-52
2020/12/17 04:10:11;;;;;;;277.38;144.07;;;;;;;1.89;75.30;95245.31;1807867;79;21073;-52
2020/12/17 04:12:40;;;;;;;317.93;164.75;;;;;;;1.83;75.39;95246.84;1807868;79;21196;-52
2020/12/17 04:15:08;;;;;;;297.15;145.75;;;;;;;1.73;75.60;95250.25;1807758;79;21124;-52
2020/12/17 04:17:36;;;;;;;282.80;137.30;;;;;;;1.67;75.85;95250.41;1807839;79;21101;-52
2020/12/17 04:20:05;;;;;;;218.78;107.87;;;;;;;1.61;76.23;95246.52;1807675;79;21050;-52
2020/12/17 04:22:33;;;;;;;302.77;137.20;;;;;;;1.57;76.52;95251.14;1807992;78;21478;-52
2020/12/17 04:25:01;;;;;;;303.23;142.72;;;;;;;1.47;76.82;95249.12;1807846;79;21362;-53
2020/12/17 04:27:29;;;;;;;256.10;119.97;;;;;;;1.44;77.18;95255.30;1807856;79;21556;-51
2020/12/17 04:29:58;;;;;;;248.70;124.33;;;;;;;1.49;77.54;95252.23;1807843;79;21169;-52
2020/12/17 04:32:28;;;;;;;268.77;133.35;;;;;;;1.56;77.56;95249.59;1807821;79;21121;-52
2020/12/17 04:34:56;;;;;;;290.12;147.93;;;;;;;1.60;77.66;95243.61;1807935;78;21168;-52
2020/12/17 04:37:25;;;;;;;283.00;144.50;;;;;;;1.67;77.98;95250.41;1807859;78;21369;-53
2020/12/17 04:39:53;;;;;;;283.20;142.20;;;;;;;1.79;78.01;95251.47;1807698;78;21050;-52
2020/12/17 04:42:22;;;;;;;269.07;142.28;;;;;;;1.94;77.76;95260.66;1807811;79;21196;-51
2020/12/17 04:44:50;;;;;;;243.88;125.82;;;;;;;2.04;77.27;95253.16;1807837;79;21129;-51
2020/12/17 04:47:20;;;;;;;220.30;121.30;;;;;;;2.13;77.34;95258.24;1807882;79;21537;-53
2020/12/17 04:49:50;;;;;;;223.95;119.60;;;;;;;2.16;76.85;95246.62;1807935;79;22259;-52
2020/12/17 04:52:19;;;;;;;186.90;101.42;;;;;;;2.18;77.12;95249.73;1807799;79;21154;-53
2020/12/17 04:54:48;;;;;;;218.25;119.25;;;;;;;2.28;76.50;95251.69;1807814;78;21125;-53
2020/12/17 04:57:17;;;;;;;206.40;112.80;;;;;;;2.18;76.39;95252.44;1779140;79;21149;-53
2020/12/17 04:59:49;;;;;;;203.58;109.67;;;;;;;2.15;76.57;95247.78;1807920;78;21455;-53
2020/12/17 05:02:18;;;;;;;;;;;;;;;2.13;76.46;95252.81;1810523;79;21197;-53
2020/12/17 05:04:48;;;;;;;205.35;105.55;;;;;;;2.12;76.67;95251.26;1807760;79;20272;-53
2020/12/17 05:07:19;;;;;;;211.12;114.65;;;;;;;2.09;76.59;95252.78;1807903;79;21526;-52
2020/12/17 05:09:48;;;;;;;201.90;103.62;;;;;;;2.07;76.77;95248.33;1807922;79;21569;-53
2020/12/17 05:12:17;;;;;;;203.70;109.87;;;;;;;2.10;76.82;95247.56;1807788;79;21120;-52
2020/12/17 05:14:46;;;;;;;182.22;100.58;;;;;;;2.04;76.80;95248.30;1807820;79;21473;-52
2020/12/17 05:17:15;;;;;;;197.43;105.35;;;;;;;2.00;77.11;95247.51;1807748;79;21054;-52
2020/12/17 05:19:44;;;;;;;146.30;81.70;;;;;;;1.98;77.04;95253.90;1807817;78;21454;-52
2020/12/17 05:22:14;;;;;;;183.62;99.80;;;;;;;1.90;77.14;95252.28;1807835;78;21049;-52
2020/12/17 05:24:45;;;;;;;168.70;95.83;;;;;;;1.80;77.50;95261.92;1807813;79;21074;-52
2020/12/17 05:27:14;;;;;;;172.60;97.90;;;;;;;1.82;77.75;95257.48;1807801;79;21150;-53
2020/12/17 05:29:43;;;;;;;179.97;100.02;;;;;;;1.88;78.10;95254.61;1807699;79;21078;-52
2020/12/17 05:32:13;;;;;;;158.65;86.70;;;;;;;1.97;78.10;95257.17;1807736;79;21470;-52
2020/12/17 05:34:42;;;;;;;171.20;94.72;;;;;;;2.08;77.93;95252.59;1807483;79;21062;-52
2020/12/17 05:37:10;;;;;;;185.73;102.02;;;;;;;2.09;78.01;95254.14;1753872;79;21144;-53
2020/12/17 05:39:43;;;;;;;196.87;106.83;;;;;;;2.21;78.11;95251.67;1804485;78;22253;-53
2020/12/17 05:42:13;;;;;;;211.72;111.85;;;;;;;2.37;77.90;95253.48;1807766;79;21069;-52
2020/12/17 05:44:41;;;;;;;149.50;84.15;;;;;;;2.53;77.44;95249.27;1807819;79;21049;-54
2020/12/17 05:47:13;;;;;;;153.93;86.37;;;;;;;2.59;76.84;95249.67;1807791;78;21081;-52
2020/12/17 05:49:41;;;;;;;180.42;95.55;;;;;;;2.60;77.02;95248.51;1807884;79;21446;-51
2020/12/17 05:52:21;;;;;;;195.68;103.53;;;;;;;2.68;76.96;95247.38;1807763;79;21545;-52
2020/12/17 05:54:58;;;;;;;151.72;81.40;;;;;;;2.79;76.81;95251.67;1807763;79;21129;-53
2020/12/17 05:57:26;;;;;;;157.52;82.53;;;;;;;2.93;76.44;95260.42;1807877;79;21477;-52
2020/12/17 06:00:06;;;;;;;149.23;81.30;;;;;;;2.94;75.93;95258.70;1807728;78;21176;-53
2020/12/17 06:02:35;;;;;;;156.02;79.87;;;;;;;2.89;75.85;95256.94;1807917;79;21485;-54
2020/12/17 06:05:11;;;;;;;151.45;82.12;;;;;;;2.88;76.12;95267.01;1807858;79;22201;-55
2020/12/17 06:07:50;;;;;;;187.92;95.92;;;;;;;2.93;76.16;95262.58;1807752;78;21140;-52
2020/12/17 06:10:30;;;;;;;241.88;119.10;;;;;;;2.96;75.80;95265.09;1807254;79;21117;-53
2020/12/17 06:13:01;;;;;;;204.60;108.00;;;;;;;2.89;75.87;95271.28;1807586;79;21164;-52
2020/12/17 06:15:30;;;;;;;207.65;115.30;;;;;;;2.90;76.02;95273.42;1807793;79;21105;-53
2020/12/17 06:18:03;;;;;;;181.78;94.83;;;;;;;2.89;75.74;95274.59;1807693;78;21194;-53
2020/12/17 06:20:32;;;;;;;159.55;86.45;;;;;;;2.85;75.69;95274.58;1807143;79;21244;-54
2020/12/17 06:23:03;;;;;;;169.43;95.45;;;;;;;2.80;75.67;95283.67;1731168;81;21590;-52
2020/12/17 06:25:35;;;;;;;153.97;82.40;;;;;;;2.71;75.95;95279.97;1738223;80;21550;-53
2020/12/17 06:28:03;;;;;;;137.97;74.65;;;;;;;2.68;76.17;95283.45;1717251;83;21099;-54
2020/12/17 06:30:32;;;;;;;164.07;86.45;;;;;;;2.60;76.33;95288.68;1717185;82;21099;-52
2020/12/17 06:33:07;;;;;;;151.93;83.95;;;;;;;2.56;76.70;95287.10;1717091;82;21125;-53
2020/12/17 06:35:54;;;;;;;80.07;44.93;;;;;;;2.61;76.77;95290.80;1717303;83;21493;-52
2020/12/17 06:38:27;;;;;;;108.90;54.10;;;;;;;2.67;76.96;95286.57;1717726;82;21094;-51
2020/12/17 06:40:55;;;;;;;92.55;49.13;;;;;;;2.80;76.93;95290.47;1762965;80;21101;-53
2020/12/17 06:43:34;;;;;;;106.30;53.80;;;;;;;2.85;76.66;95286.80;1764288;80;21346;-53
2020/12/17 06:46:03;;;;;;;104.05;52.27;;;;;;;2.86;76.81;95296.50;1750506;82;21078;-53
2020/12/17 06:48:38;;;;;;;128.68;65.22;;;;;;;2.92;76.55;95294.20;1750575;82;21507;-55
2020/12/17 06:51:37;;;;;;;108.20;59.75;;;;;;;2.94;76.58;95293.23;1757371;80;21204;-54
2020/12/17 06:54:09;;;;;;;167.03;88.33;;;;;;;3.01;76.39;95294.02;1727101;82;21078;-53
2020/12/17 06:56:37;;;;;;;102.78;55.12;;;;;;;3.09;76.60;95293.45;1746080;80;21164;-54
2020/12/17 06:59:15;;;;;;;72.90;40.20;;;;;;;3.21;76.22;95293.09;1735691;82;21179;-53
2020/12/17 07:01:44;;;;;;;74.90;44.30;;;;;;;3.23;75.99;95292.88;1735761;82;21065;-54
2020/12/17 07:04:33;;;;;;;65.37;37.48;;;;;;;3.26;75.86;95292.11;1735479;82;21188;-53
2020/12/17 07:07:19;;;;;;;70.70;42.88;;;;;;;3.24;75.53;95289.59;1735655;82;21102;-55
2020/12/17 07:09:58;;;;;;;53.40;35.00;;;;;;;3.18;75.64;95293.84;1735707;82;21260;-57
2020/12/17 07:12:40;;;;;;;65.30;40.25;;;;;;;3.24;75.60;95290.95;1747233;80;21213;-53
2020/12/17 07:15:30;;;;;;;58.95;37.75;;;;;;;3.36;75.03;95287.84;1729630;80;21129;-53
2020/12/17 07:18:26;;;;;;;59.53;36.90;;;;;;;3.41;74.76;95284.76;1697737;83;21650;-53
2020/12/17 07:21:06;;;;;;;64.95;40.12;;;;;;;3.37;74.37;95284.75;1718965;81;21212;-54
2020/12/17 07:23:41;;;;;;;68.00;40.63;;;;;;;3.35;74.51;95288.44;1727469;82;21653;-55
2020/12/17 07:26:13;;;;;;;76.62;45.12;;;;;;;3.45;74.52;95285.53;1727949;81;21224;-55
2020/12/17 07:28:41;;;;;;;70.78;44.85;;;;;;;3.45;74.16;95287.66;1730640;80;21114;-55
2020/12/17 07:31:16;;;;;;;96.85;51.60;;;;;;;3.46;74.06;95295.23;1747580;80;21250;-55
2020/12/17 07:33:45;;;;;;;64.22;40.38;;;;;;;3.44;74.08;95297.58;1768730;80;21507;-54
2020/12/17 07:36:14;;;;;;;54.55;36.70;;;;;;;3.48;73.96;95297.18;1754649;80;21389;-56
2020/12/17 07:38:42;;;;;;;51.53;34.15;;;;;;;3.48;74.10;95299.14;1749368;80;21561;-57
2020/12/17 07:41:25;;;;;;;53.25;33.75;;;;;;;3.60;74.14;95289.20;1751474;80;21185;-54
2020/12/17 07:43:55;;;;;;;56.98;36.60;;;;;;;3.69;73.66;95288.25;1735902;81;21192;-54
2020/12/17 07:46:41;;;;;;;65.32;39.15;;;;;;;3.71;73.42;95289.39;1757272;80;21070;-54
2020/12/17 07:49:25;;;;;;;63.60;39.35;;;;;;;3.72;73.43;95292.30;1712590;81;21391;-57
2020/12/17 07:51:54;;;;;;;43.25;28.80;;;;;;;3.79;73.07;95292.89;1746543;81;21149;-54
2020/12/17 07:54:23;;;;;;;36.98;26.35;;;;;;;3.83;72.66;95289.00;1745091;80;21554;-58
2020/12/17 07:57:00;;;;;;;34.60;24.25;;;;;;;3.86;72.28;95296.38;1744387;81;21145;-55
2020/12/17 07:59:28;;;;;;;46.25;29.57;;;;;;;3.86;72.06;95292.30;1745991;81;21207;-57
2020/12/17 08:02:03;;;;;;;49.33;32.03;;;;;;;3.80;71.81;95289.79;1751502;81;22132;-54
2020/12/17 08:04:30;;;;;;;49.40;32.28;;;;;;;3.64;71.93;95290.77;1752491;81;21181;-55
2020/12/17 08:07:08;;;;;;;58.78;35.45;;;;;;;3.57;72.29;95290.78;1753371;81;21555;-55
2020/12/17 08:09:36;;;;;;;63.13;37.83;;;;;;;3.59;72.37;95291.73;1734357;81;21184;-55
2020/12/17 08:12:09;;;;;;;45.88;30.30;;;;;;;3.56;72.50;95287.87;1745081;81;22143;-56
2020/12/17 08:14:38;;;;;;;64.25;40.28;;;;;;;3.51;72.80;95289.59;1748655;81;22355;-55
2020/12/17 08:17:08;;;;;;;52.08;35.40;;;;;;;3.48;72.63;95287.66;1750601;81;21158;-57
2020/12/17 08:19:37;;;;;;;48.85;32.05;;;;;;;3.45;72.54;95289.02;1774879;80;21203;-53
2020/12/17 08:22:05;;;;;;;39.83;27.85;;;;;;;3.43;72.72;95305.54;1742474;80;21494;-56
2020/12/17 08:24:34;;;;;;;39.70;26.93;;;;;;;3.46;72.70;95302.04;1711086;80;21185;-56
2020/12/17 08:27:05;;;;;;;55.88;35.65;;;;;;;3.47;72.76;95298.95;1750119;80;21359;-55
2020/12/17 08:29:33;;;;;;;47.43;31.35;;;;;;;3.47;72.73;95300.88;1743474;80;21602;-55
2020/12/17 08:32:05;;;;;;;64.65;40.73;;;;;;;3.46;72.69;95309.59;1749367;82;21171;-55
2020/12/17 08:34:34;;;;;;;75.60;51.42;;;;;;;3.42;72.92;95311.55;1750105;80;21116;-55
2020/12/17 08:37:03;;;;;;;41.75;29.18;;;;;;;3.48;73.03;95305.34;1763421;80;21258;-56
2020/12/17 08:39:32;;;;;;;58.42;38.08;;;;;;;3.49;72.91;95304.77;1760482;80;21380;-56
2020/12/17 08:42:01;;;;;;;54.80;35.58;;;;;;;3.44;72.97;95301.66;1763438;80;21222;-56
2020/12/17 08:44:32;;;;;;;49.08;33.10;;;;;;;3.45;73.21;95299.89;1757454;80;21188;-55
2020/12/17 08:47:06;;;;;;;60.88;38.02;;;;;;;3.49;73.12;95301.45;1753843;81;21213;-54
2020/12/17 08:49:34;;;;;;;73.72;42.67;;;;;;;3.46;73.22;95303.40;1731718;81;21066;-56
2020/12/17 08:52:03;;;;;;;66.02;42.55;;;;;;;3.46;73.26;95302.04;1752124;80;21273;-57
2020/12/17 08:54:36;;;;;;;95.38;60.83;;;;;;;3.52;73.21;95294.47;1744538;81;21243;-54
2020/12/17 08:57:11;;;;;;;64.97;42.48;;;;;;;3.57;73.18;95294.86;1728038;81;21547;-54
2020/12/17 08:59:39;;;;;;;65.90;40.20;;;;;;;3.73;73.23;95288.42;1756559;81;21109;-52
2020/12/17 09:02:08;;;;;;;63.48;36.70;;;;;;;3.80;72.82;95274.83;1719297;81;21682;-53
2020/12/17 09:04:37;;;;;;;60.28;39.03;;;;;;;3.77;72.67;95282.98;1743353;81;22156;-57
2020/12/17 09:07:07;;;;;;;59.27;36.48;;;;;;;3.78;72.62;95278.52;1752331;80;21000;-54
2020/12/17 09:09:39;;;;;;;74.75;44.77;;;;;;;3.88;72.45;95284.52;1758183;80;21648;-56
2020/12/17 09:12:08;;;;;;;71.67;46.42;;;;;;;3.92;72.36;95283.16;1759556;80;21213;-56
2020/12/17 09:14:38;;;;;;;91.92;51.15;;;;;;;3.95;72.21;95279.08;1755057;80;21274;-57
2020/12/17 09:17:15;;;;;;;60.58;37.17;;;;;;;4.02;72.30;95276.94;1756353;80;21882;-56
2020/12/17 09:19:45;;;;;;;74.70;44.83;;;;;;;4.11;71.91;95278.08;1763374;79;21067;-55
2020/12/17 09:22:19;;;;;;;88.15;52.27;;;;;;;3.94;71.82;95277.53;1763082;79;21067;-55
2020/12/17 09:24:54;;;;;;;93.65;52.08;;;;;;;3.85;72.32;95273.06;1758295;81;21492;-57
2020/12/17 09:27:28;;;;;;;85.53;45.95;;;;;;;3.84;72.53;95265.30;1746708;81;21088;-53
2020/12/17 09:30:18;;;;;;;88.40;49.88;;;;;;;3.83;72.40;95263.16;1735591;82;22121;-59
2020/12/17 09:33:03;;;;;;;107.80;60.33;;;;;;;3.68;72.51;95261.61;1715689;82;21221;-57
2020/12/17 09:35:34;;;;;;;82.40;44.60;;;;;;;3.58;73.11;95260.27;1724569;82;21154;-58
2020/12/17 09:38:14;;;;;;;109.15;57.33;;;;;;;3.52;73.25;95261.23;1698312;83;21212;-53
2020/12/17 09:40:44;;;;;;;94.42;53.40;;;;;;;3.48;73.62;95261.63;1721743;83;21077;-56
2020/12/17 09:43:15;;;;;;;80.55;46.92;;;;;;;3.48;73.67;95260.27;1722106;82;21380;-56
2020/12/17 09:45:45;;;;;;;73.52;42.13;;;;;;;3.49;73.91;95263.38;1741328;81;21114;-57
2020/12/17 09:48:26;;;;;;;75.97;42.58;;;;;;;3.48;73.82;95267.86;1754940;81;21068;-54
2020/12/17 09:51:03;;;;;;;81.10;45.78;;;;;;;3.54;73.87;95262.98;1754597;81;21078;-54
2020/12/17 09:53:36;;;;;;;89.83;47.73;;;;;;;3.59;73.83;95267.25;1755085;81;21133;-57
2020/12/17 09:56:13;;;;;;;84.28;44.85;;;;;;;3.62;73.54;95263.19;1755041;80;21354;-56
2020/12/17 09:58:45;;;;;;;78.35;43.63;;;;;;;3.64;73.64;95260.84;1754659;81;21089;-55
2020/12/17 10:01:14;;;;;;;84.15;46.95;;;;;;;3.79;73.55;95265.11;1754851;81;21166;-53
2020/12/17 10:03:43;;;;;;;74.17;42.15;;;;;;;3.84;73.22;95263.34;1754966;81;21141;-54
2020/12/17 10:06:12;;;;;;;81.32;43.50;;;;;;;3.87;73.12;95252.27;1732351;81;21070;-54
2020/12/17 10:08:41;;;;;;;79.58;42.05;;;;;;;3.85;73.17;95252.65;1755038;81;21364;-55
2020/12/17 10:11:09;;;;;;;71.30;40.40;;;;;;;3.93;73.14;95246.61;1755000;81;21178;-56
2020/12/17 10:13:38;;;;;;;79.40;43.85;;;;;;;4.01;73.04;95244.84;1754506;80;21129;-59
2020/12/17 10:16:07;;;;;;;74.03;44.45;;;;;;;4.11;72.86;95249.49;1754978;81;21176;-57
2020/12/17 10:18:36;;;;;;;75.78;43.10;;;;;;;4.19;72.85;95245.56;1755130;81;21125;-54
2020/12/17 10:21:05;;;;;;;64.67;37.90;;;;;;;4.37;72.44;95243.56;1754590;80;21336;-54
2020/12/17 10:23:33;;;;;;;58.02;35.00;;;;;;;4.59;71.88;95242.28;1754862;80;21563;-53
2020/12/17 10:26:04;;;;;;;60.75;35.35;;;;;;;4.79;71.51;95238.50;1754975;80;22091;-58
2020/12/17 10:28:33;;;;;;;61.13;38.40;;;;;;;4.92;70.76;95234.91;1754948;80;21144;-54
2020/12/17 10:31:02;;;;;;;55.33;32.50;;;;;;;4.91;70.48;95230.63;1755082;81;21667;-54
2020/12/17 10:33:31;;;;;;;89.97;46.13;;;;;;;4.96;70.37;95241.11;1755081;80;21203;-54
2020/12/17 10:35:59;;;;;;;78.02;48.38;;;;;;;4.98;70.22;95234.66;1727623;81;21617;-56
2020/12/17 10:38:28;;;;;;;84.97;50.67;;;;;;;4.97;70.38;95226.30;1755046;80;21110;-56
2020/12/17 10:40:57;;;;;;;90.12;51.95;;;;;;;5.07;70.15;95224.10;1754587;80;21196;-54
2020/12/17 10:43:27;;;;;;;88.97;50.88;;;;;;;5.16;69.99;95221.69;1755018;81;21087;-59
2020/12/17 10:45:55;;;;;;;83.55;51.08;;;;;;;5.28;69.68;95217.13;1755110;80;21534;-56
2020/12/17 10:48:24;;;;;;;72.10;45.50;;;;;;;5.40;69.54;95222.11;1754895;81;21129;-55
2020/12/17 10:50:53;;;;;;;65.45;40.25;;;;;;;5.57;69.07;95215.72;1754693;81;21117;-55
2020/12/17 10:53:22;;;;;;;77.12;47.50;;;;;;;5.76;68.48;95219.25;1754854;81;21158;-56
2020/12/17 10:55:50;;;;;;;61.95;40.17;;;;;;;5.83;67.98;95213.13;1755110;81;21126;-55
2020/12/17 10:58:20;;;;;;;72.82;43.23;;;;;;;5.88;67.48;95207.83;1754845;81;21322;-55
2020/12/17 11:00:49;;;;;;;82.17;46.98;;;;;;;5.85;67.46;95214.11;1754922;81;21173;-56
2020/12/17 11:03:18;;;;;;;56.35;36.55;;;;;;;5.84;67.56;95214.71;1755797;80;21209;-57
2020/12/17 11:05:47;;;;;;;66.50;43.68;;;;;;;5.88;67.34;95215.45;1756054;80;21141;-54
2020/12/17 11:08:15;;;;;;;64.87;41.92;;;;;;;5.82;67.29;95210.83;1755929;81;21062;-55
2020/12/17 11:10:44;;;;;;;71.12;43.25;;;;;;;5.71;67.61;95205.44;1756190;81;21445;-56
2020/12/17 11:13:15;;;;;;;66.80;43.75;;;;;;;5.70;67.80;95201.74;1755250;81;21099;-55
2020/12/17 11:15:43;;;;;;;74.85;49.27;;;;;;;5.69;67.71;95202.92;1755948;81;21067;-54
2020/12/17 11:18:30;;;;;;;67.75;42.38;;;;;;;5.69;67.89;95202.92;1756194;81;21693;-56
2020/12/17 11:21:00;;;;;;;88.35;48.75;;;;;;;5.88;67.53;95204.52;1756021;80;21174;-55
2020/12/17 11:23:28;;;;;;;73.60;45.85;;;;;;;6.05;67.38;95200.84;1742413;80;21199;-58
2020/12/17 11:25:57;;;;;;;81.87;52.55;;;;;;;6.38;67.04;95199.27;1753361;80;21225;-55
2020/12/17 11:28:27;;;;;;;86.55;50.98;;;;;;;6.75;66.28;95200.55;1753064;80;21190;-55
2020/12/17 11:30:55;;;;;;;89.50;54.35;;;;;;;7.10;65.30;95187.92;1734856;82;21079;-58
2020/12/17 11:33:25;;;;;;;82.10;50.95;;;;;;;7.33;64.31;95187.94;1725978;81;21079;-56